createdAt,value
2019-02-26T00:01:14.440Z,103283.21
2019-02-26T00:04:36.905Z,103283.45
2019-02-26T00:08:02.440Z,103286.75
2019-02-26T00:11:29.011Z,103283.83
2019-02-26T00:14:54.525Z,103276.06
2019-02-26T00:18:19.046Z,103271.43
2019-02-26T00:21:43.459Z,103273.14
2019-02-26T00:25:08.487Z,103280.55
2019-02-26T00:28:36.310Z,103272.68
2019-02-26T00:31:59.528Z,103275.48
2019-02-26T00:35:23.468Z,103273.84
2019-02-26T00:38:47.794Z,103272.06
2019-02-26T00:42:11.021Z,103268.27
2019-02-26T00:45:36.261Z,103280.55
2019-02-26T00:49:00.903Z,103281.20
2019-02-26T00:52:24.951Z,103278.52
2019-02-26T00:55:48.052Z,103285.61
2019-02-26T00:59:12.330Z,103292.52
2019-02-26T01:02:35.507Z,103293.35
2019-02-26T01:05:59.310Z,103297.62
2019-02-26T01:09:25.187Z,103296.48
2019-02-26T01:12:48.978Z,103293.75
2019-02-26T01:16:12.165Z,103284.81
2019-02-26T01:19:36.901Z,103283.44
2019-02-26T01:23:00.672Z,103287.68
2019-02-26T01:26:27.299Z,103293.57
2019-02-26T01:29:51.096Z,103284.66
2019-02-26T01:33:14.213Z,103281.33
2019-02-26T01:36:40.250Z,103282.48
2019-02-26T01:40:07.387Z,103276.99
2019-02-26T01:43:29.885Z,103266.56
2019-02-26T01:46:53.789Z,103263.68
2019-02-26T01:50:18.173Z,103263.22
2019-02-26T01:53:42.336Z,103260.89
2019-02-26T01:57:08.613Z,103249.41
2019-02-26T02:00:31.874Z,103231.55
2019-02-26T02:03:56.222Z,103221.52
2019-02-26T02:07:21.382Z,103211.87
2019-02-26T02:10:44.860Z,103207.97
2019-02-26T02:14:08.627Z,103203.81
2019-02-26T02:17:33.829Z,103214.87
2019-02-26T02:20:58.309Z,103222.23
2019-02-26T02:24:22.865Z,103227.81
2019-02-26T02:27:49.684Z,103225.38
2019-02-26T02:31:11.980Z,103225.45
2019-02-26T02:34:36.555Z,103226.36
2019-02-26T02:38:02.806Z,103227.94
2019-02-26T02:41:26.037Z,103227.58
2019-02-26T02:44:50.314Z,103226.51
2019-02-26T02:48:14.365Z,103224.99
2019-02-26T02:51:39.522Z,103215.12
2019-02-26T02:55:04.558Z,103208.48
2019-02-26T02:58:28.441Z,103197.38
2019-02-26T03:01:52.753Z,103207.22
2019-02-26T03:05:16.834Z,103199.20
2019-02-26T03:08:42.216Z,103201.59
2019-02-26T03:12:05.447Z,103201.02
2019-02-26T03:15:30.040Z,103201.81
2019-02-26T03:18:53.732Z,103205.96
2019-02-26T03:22:18.897Z,103204.48
2019-02-26T03:25:44.440Z,103198.05
2019-02-26T03:29:07.300Z,103194.16
2019-02-26T03:32:30.473Z,103191.30
2019-02-26T03:35:53.774Z,103185.55
2019-02-26T03:39:17.209Z,103181.14
2019-02-26T03:42:41.591Z,103184.17
2019-02-26T03:46:05.649Z,103200.45
2019-02-26T03:49:28.931Z,103200.84
2019-02-26T03:52:52.127Z,103200.34
2019-02-26T03:56:18.307Z,103200.91
2019-02-26T03:59:41.360Z,103203.19
2019-02-26T04:03:05.926Z,103195.64
2019-02-26T04:06:30.672Z,103195.17
2019-02-26T04:09:55.850Z,103194.44
2019-02-26T04:13:20.307Z,103196.23
2019-02-26T04:16:43.775Z,103188.12
2019-02-26T04:20:08.552Z,103190.48
2019-02-26T04:23:33.173Z,103194.03
2019-02-26T04:27:51.707Z,103193.75
2019-02-26T04:31:44.545Z,103206.74
2019-02-26T04:35:36.288Z,103200.90
2019-02-26T04:40:05.360Z,103213.88
2019-02-26T04:44:35.076Z,103216.56
2019-02-26T04:48:00.549Z,103218.39
2019-02-26T04:51:23.389Z,103219.36
2019-02-26T04:54:46.509Z,103217.55
2019-02-26T04:58:12.234Z,103222.87
2019-02-26T05:01:34.951Z,103223.80
2019-02-26T05:04:58.196Z,103223.01
2019-02-26T05:08:21.574Z,103224.72
2019-02-26T05:11:44.970Z,103230.61
2019-02-26T05:15:11.630Z,103227.97
2019-02-26T05:18:34.568Z,103224.34
2019-02-26T05:21:59.370Z,103228.80
2019-02-26T05:25:22.986Z,103226.58
2019-02-26T05:28:48.946Z,103231.50
2019-02-26T05:32:11.744Z,103229.30
2019-02-26T05:35:37.337Z,103237.34
2019-02-26T05:39:02.285Z,103248.98
2019-02-26T05:42:27.480Z,103245.93
2019-02-26T05:45:53.497Z,103246.39
2019-02-26T05:49:19.117Z,103250.86
2019-02-26T05:52:40.855Z,103251.28
2019-02-26T05:56:04.558Z,103249.95
2019-02-26T05:59:27.746Z,103252.63
2019-02-26T06:02:51.124Z,103260.66
2019-02-26T06:06:14.222Z,103265.57
2019-02-26T06:09:37.695Z,103254.41
2019-02-26T06:13:02.206Z,103267.36
2019-02-26T06:16:27.121Z,103262.48
2019-02-26T06:19:51.110Z,103263.78
2019-02-26T06:23:14.215Z,103261.55
2019-02-26T06:26:40.649Z,103263.36
2019-02-26T06:30:07.311Z,103265.14
2019-02-26T06:33:32.044Z,103267.41
2019-02-26T06:37:17.790Z,103265.62
2019-02-26T06:40:41.907Z,103261.78
2019-02-26T06:44:46.426Z,103260.41
2019-02-26T06:48:12.563Z,103265.53
2019-02-26T06:51:34.515Z,103256.20
2019-02-26T06:55:00.070Z,103259.32
2019-02-26T06:58:25.271Z,103259.77
2019-02-26T07:01:48.355Z,103260.19
2019-02-26T07:05:12.455Z,103266.20
2019-02-26T07:08:35.943Z,103263.70
2019-02-26T07:11:59.409Z,103266.31
2019-02-26T07:15:22.578Z,103270.31
2019-02-26T07:18:45.716Z,103268.97
2019-02-26T07:22:11.139Z,103267.63
2019-02-26T07:25:36.260Z,103267.60
2019-02-26T07:28:58.777Z,103262.20
2019-02-26T07:32:22.756Z,103259.45
2019-02-26T07:35:46.873Z,103250.08
2019-02-26T07:39:13.034Z,103253.84
2019-02-26T07:42:37.278Z,103259.09
2019-02-26T07:46:01.491Z,103255.31
2019-02-26T07:49:24.606Z,103256.58
2019-02-26T07:52:49.627Z,103261.20
2019-02-26T07:56:15.840Z,103267.55
2019-02-26T07:59:39.829Z,103267.91
2019-02-26T08:03:07.147Z,103269.95
2019-02-26T08:06:31.652Z,103263.34
2019-02-26T08:09:55.307Z,103259.81
2019-02-26T08:13:18.746Z,103255.40
2019-02-26T08:16:42.140Z,103262.17
2019-02-26T08:20:08.140Z,103262.42
2019-02-26T08:23:30.647Z,103258.50
2019-02-26T08:26:53.774Z,103257.17
2019-02-26T08:30:20.629Z,103254.28
2019-02-26T08:33:42.695Z,103249.02
2019-02-26T08:37:05.832Z,103243.63
2019-02-26T08:40:29.133Z,103246.06
2019-02-26T08:43:54.555Z,103250.59
2019-02-26T08:47:19.259Z,103248.00
2019-02-26T08:50:44.063Z,103249.42
2019-02-26T08:54:08.251Z,103251.45
2019-02-26T08:57:31.531Z,103239.08
2019-02-26T09:00:54.663Z,103243.63
2019-02-26T09:04:19.695Z,103246.31
2019-02-26T09:07:45.595Z,103243.61
2019-02-26T09:11:10.700Z,103248.15
2019-02-26T09:14:37.265Z,103248.40
2019-02-26T09:17:58.819Z,103252.38
2019-02-26T09:21:22.877Z,103248.16
2019-02-26T09:24:46.836Z,103253.34
2019-02-26T09:28:11.190Z,103261.32
2019-02-26T09:31:34.301Z,103259.59
2019-02-26T09:34:59.153Z,103259.67
2019-02-26T09:38:25.462Z,103266.17
2019-02-26T09:41:48.858Z,103265.28
2019-02-26T09:45:15.895Z,103269.67
2019-02-26T09:48:41.092Z,103260.54
2019-02-26T09:52:06.532Z,103252.06
2019-02-26T09:55:29.941Z,103255.14
2019-02-26T09:58:53.060Z,103257.36
2019-02-26T10:02:17.362Z,103254.88
2019-02-26T10:05:41.110Z,103262.67
2019-02-26T10:09:08.388Z,103259.88
2019-02-26T10:12:32.254Z,103254.80
2019-02-26T10:15:58.627Z,103254.38
2019-02-26T10:19:21.392Z,103254.91
2019-02-26T10:22:44.581Z,103257.95
2019-02-26T10:26:10.453Z,103241.53
2019-02-26T10:29:36.677Z,103242.95
2019-02-26T10:33:01.949Z,103240.08
2019-02-26T10:36:24.376Z,103237.73
2019-02-26T10:39:49.716Z,103238.24
2019-02-26T10:43:12.590Z,103236.66
2019-02-26T10:46:37.094Z,103232.72
2019-02-26T10:50:00.721Z,103237.50
2019-02-26T10:53:23.824Z,103239.09
2019-02-26T10:56:46.945Z,103235.27
2019-02-26T11:00:25.239Z,103234.49
2019-02-26T11:03:49.259Z,103242.06
2019-02-26T11:07:14.253Z,103241.30
2019-02-26T11:10:41.405Z,103236.98
2019-02-26T11:14:05.149Z,103237.70
2019-02-26T11:17:28.923Z,103241.36
2019-02-26T11:20:56.174Z,103239.91
2019-02-26T11:24:18.298Z,103232.34
2019-02-26T11:27:43.484Z,103232.48
2019-02-26T11:31:08.867Z,103236.80
2019-02-26T11:34:33.403Z,103232.47
2019-02-26T11:37:58.063Z,103226.30
2019-02-26T11:41:21.529Z,103217.20
2019-02-26T11:44:44.739Z,103212.45
2019-02-26T11:48:08.719Z,103213.44
2019-02-26T11:51:37.019Z,103204.91
2019-02-26T11:54:58.822Z,103198.78
2019-02-26T11:58:24.190Z,103201.72
2019-02-26T12:01:47.365Z,103198.00
2019-02-26T12:05:10.808Z,103198.88
2019-02-26T12:08:37.045Z,103196.81
2019-02-26T12:12:00.896Z,103197.03
2019-02-26T12:15:27.168Z,103189.52
2019-02-26T12:18:50.440Z,103178.20
2019-02-26T12:22:13.654Z,103177.92
2019-02-26T12:25:36.822Z,103173.59
2019-02-26T12:29:02.128Z,103170.41
2019-02-26T12:32:27.499Z,103162.41
2019-02-26T12:35:51.192Z,103163.19
2019-02-26T12:39:16.168Z,103158.17
2019-02-26T12:42:39.637Z,103151.74
2019-02-26T12:46:04.709Z,103153.11
2019-02-26T12:49:29.412Z,103142.08
2019-02-26T12:52:53.897Z,103142.31
2019-02-26T12:56:17.927Z,103127.09
2019-02-26T12:59:41.149Z,103128.69
2019-02-26T13:03:05.668Z,103129.66
2019-02-26T13:06:29.791Z,103122.63
2019-02-26T13:09:55.966Z,103114.13
2019-02-26T13:13:18.023Z,103112.61
2019-02-26T13:16:42.426Z,103098.94
2019-02-26T13:20:11.192Z,103097.58
2019-02-26T13:23:34.559Z,103094.20
2019-02-26T13:26:59.698Z,103097.17
2019-02-26T13:30:23.248Z,103086.27
2019-02-26T13:33:46.840Z,103077.09
2019-02-26T13:37:10.019Z,103075.40
2019-02-26T13:40:38.544Z,103071.70
2019-02-26T13:43:58.359Z,103068.33
2019-02-26T13:47:21.498Z,103063.81
2019-02-26T13:50:44.974Z,103055.02
2019-02-26T13:54:08.076Z,103049.25
2019-02-26T13:57:31.364Z,103051.20
2019-02-26T14:00:54.573Z,103050.02
2019-02-26T14:04:17.994Z,103047.41
2019-02-26T14:07:41.486Z,103028.62
2019-02-26T14:11:04.719Z,103033.34
2019-02-26T14:14:27.900Z,103030.05
2019-02-26T14:17:51.020Z,103018.21
2019-02-26T14:21:14.167Z,103024.45
2019-02-26T14:24:37.551Z,103014.61
2019-02-26T14:28:00.663Z,103017.44
2019-02-26T14:31:23.798Z,103009.03
2019-02-26T14:34:47.206Z,103012.95
2019-02-26T14:38:10.309Z,103003.83
2019-02-26T14:41:33.512Z,102996.25
2019-02-26T14:44:56.624Z,102992.87
2019-02-26T14:48:19.819Z,102992.40
2019-02-26T14:51:42.953Z,102988.50
2019-02-26T14:55:06.769Z,102983.20
2019-02-26T14:58:29.992Z,102984.62
2019-02-26T15:01:53.099Z,102972.13
2019-02-26T15:05:16.791Z,102973.61
2019-02-26T15:08:41.282Z,102966.83
2019-02-26T15:12:04.497Z,102968.03
2019-02-26T15:15:28.723Z,102962.19
2019-02-26T15:18:52.158Z,102959.38
2019-02-26T15:22:15.312Z,102953.50
2019-02-26T15:25:38.419Z,102958.47
2019-02-26T15:29:01.722Z,102952.55
2019-02-26T15:32:24.770Z,102955.20
2019-02-26T15:35:47.873Z,102948.84
2019-02-26T15:39:11.014Z,102962.80
2019-02-26T15:42:34.227Z,102950.27
2019-02-26T15:45:57.787Z,102951.06
2019-02-26T15:49:22.331Z,102949.97
2019-02-26T15:52:46.119Z,102948.47
2019-02-26T15:56:09.613Z,102945.28
2019-02-26T15:59:35.317Z,102951.98
2019-02-26T16:02:59.297Z,102936.67
2019-02-26T16:06:23.368Z,102936.34
2019-02-26T16:09:46.496Z,102932.77
2019-02-26T16:13:09.832Z,102937.02
2019-02-26T16:16:32.948Z,102938.50
2019-02-26T16:19:56.172Z,102935.46
2019-02-26T16:23:19.390Z,102934.30
2019-02-26T16:26:42.485Z,102930.97
2019-02-26T16:30:11.367Z,102935.23
2019-02-26T16:33:34.792Z,102935.83
2019-02-26T16:36:57.917Z,102935.61
2019-02-26T16:40:22.243Z,102932.17
2019-02-26T16:43:47.235Z,102932.22
2019-02-26T16:47:12.620Z,102931.73
2019-02-26T16:50:35.787Z,102933.66
2019-02-26T16:53:59.190Z,102932.34
2019-02-26T16:57:22.275Z,102925.80
2019-02-26T17:00:46.569Z,102931.70
2019-02-26T17:04:10.644Z,102927.41
2019-02-26T17:07:34.776Z,102926.36
2019-02-26T17:10:58.978Z,102929.41
2019-02-26T17:14:22.498Z,102932.92
2019-02-26T17:17:46.619Z,102938.30
2019-02-26T17:21:09.817Z,102940.88
2019-02-26T17:24:33.044Z,102942.91
2019-02-26T17:27:56.138Z,102937.58
2019-02-26T17:31:19.355Z,102933.58
2019-02-26T17:34:43.014Z,102937.97
2019-02-26T17:38:06.135Z,102931.20
2019-02-26T17:41:29.242Z,102934.45
2019-02-26T17:44:52.379Z,102937.41
2019-02-26T17:48:15.528Z,102940.04
2019-02-26T17:51:38.663Z,102941.91
2019-02-26T17:55:01.890Z,102940.25
2019-02-26T17:58:25.263Z,102944.41
2019-02-26T18:01:48.379Z,102947.09
2019-02-26T18:05:11.609Z,102953.27
2019-02-26T18:08:34.838Z,102951.22
2019-02-26T18:11:59.735Z,102951.32
2019-02-26T18:15:23.222Z,102945.63
2019-02-26T18:18:46.583Z,102944.14
2019-02-26T18:22:09.684Z,102941.59
2019-02-26T18:25:33.556Z,102946.55
2019-02-26T18:28:56.838Z,102939.72
2019-02-26T18:32:19.960Z,102939.18
2019-02-26T18:35:43.285Z,102941.07
2019-02-26T18:39:10.394Z,102936.43
2019-02-26T18:42:34.002Z,102931.98
2019-02-26T18:46:00.633Z,102937.19
2019-02-26T18:49:23.450Z,102931.68
2019-02-26T18:52:48.298Z,102932.75
2019-02-26T18:56:14.248Z,102934.91
2019-02-26T18:59:37.559Z,102935.27
2019-02-26T19:03:00.757Z,102939.23
2019-02-26T19:06:24.704Z,102926.84
2019-02-26T19:09:49.172Z,102935.64
2019-02-26T19:13:12.364Z,102927.02
2019-02-26T19:16:35.987Z,102933.23
2019-02-26T19:19:59.386Z,102940.28
2019-02-26T19:23:22.576Z,102930.70
2019-02-26T19:26:47.884Z,102934.20
2019-02-26T19:30:14.612Z,102929.88
2019-02-26T19:33:37.844Z,102923.32
2019-02-26T19:37:04.417Z,102927.19
2019-02-26T19:40:38.784Z,102929.34
2019-02-26T19:44:04.278Z,102931.10
2019-02-26T19:47:31.173Z,102934.35
2019-02-26T19:50:54.478Z,102929.48
2019-02-26T19:54:18.223Z,102924.74
2019-02-26T19:57:41.665Z,102922.52
2019-02-26T20:01:05.733Z,102916.17
2019-02-26T20:04:31.599Z,102922.48
2019-02-26T20:07:54.957Z,102919.07
2019-02-26T20:11:22.633Z,102907.17
2019-02-26T20:14:48.822Z,102906.21
2019-02-26T20:18:20.119Z,102908.64
2019-02-26T20:21:37.109Z,102902.13
2019-02-26T20:25:00.464Z,102898.11
2019-02-26T20:28:26.496Z,102899.39
2019-02-26T20:31:50.413Z,102898.34
2019-02-26T20:35:15.958Z,102895.88
2019-02-26T20:38:38.942Z,102895.77
2019-02-26T20:42:05.093Z,102893.56
2019-02-26T20:45:28.280Z,102895.03
2019-02-26T20:48:51.789Z,102897.83
2019-02-26T20:52:15.237Z,102904.10
2019-02-26T20:55:39.636Z,102900.92
2019-02-26T20:59:02.909Z,102899.17
2019-02-26T21:02:26.242Z,102900.02
2019-02-26T21:05:49.794Z,102885.25
2019-02-26T21:09:13.520Z,102889.78
2019-02-26T21:12:38.381Z,102889.46
2019-02-26T21:16:02.257Z,102882.33
2019-02-26T21:19:25.628Z,102883.86
2019-02-26T21:22:49.787Z,102875.31
2019-02-26T21:26:14.744Z,102873.87
2019-02-26T21:29:38.864Z,102879.47
2019-02-26T21:33:03.093Z,102878.95
2019-02-26T21:36:28.005Z,102878.11
2019-02-26T21:39:51.459Z,102878.06
2019-02-26T21:43:14.640Z,102874.73
2019-02-26T21:46:38.065Z,102873.98
2019-02-26T21:50:01.770Z,102874.61
2019-02-26T21:53:26.041Z,102875.55
2019-02-26T21:56:49.512Z,102873.48
2019-02-26T22:00:14.363Z,102877.19
2019-02-26T22:03:37.806Z,102876.95
2019-02-26T22:07:01.000Z,102867.80
2019-02-26T22:10:24.179Z,102869.47
2019-02-26T22:13:47.271Z,102876.27
2019-02-26T22:17:10.416Z,102877.20
2019-02-26T22:20:36.405Z,102871.61
2019-02-26T22:23:58.709Z,102871.95
2019-02-26T22:27:24.454Z,102866.10
2019-02-26T22:30:47.604Z,102864.29
2019-02-26T22:34:10.856Z,102854.14
2019-02-26T22:37:34.027Z,102858.95
2019-02-26T22:40:57.120Z,102856.42
2019-02-26T22:44:21.589Z,102856.66
2019-02-26T22:47:46.360Z,102860.70
2019-02-26T22:51:09.488Z,102857.24
2019-02-26T22:54:32.618Z,102861.78
2019-02-26T22:57:55.896Z,102862.48
2019-02-26T23:01:42.966Z,102859.99
2019-02-26T23:05:06.701Z,102859.95
2019-02-26T23:08:30.012Z,102863.98
2019-02-26T23:11:53.462Z,102861.16
2019-02-26T23:15:16.622Z,102861.77
2019-02-26T23:18:40.378Z,102860.27
2019-02-26T23:22:07.121Z,102863.52
2019-02-26T23:25:30.651Z,102865.14
2019-02-26T23:28:56.166Z,102853.07
2019-02-26T23:32:21.010Z,102850.30
2019-02-26T23:35:44.620Z,102849.28
2019-02-26T23:39:11.315Z,102845.81
2019-02-26T23:42:38.583Z,102845.88
2019-02-26T23:46:01.534Z,102837.23
2019-02-26T23:49:24.969Z,102838.94
2019-02-26T23:52:48.385Z,102836.77
2019-02-26T23:56:11.651Z,102836.27
2019-02-26T23:59:37.703Z,102836.02
